Time;durP1;ratioP1;P1;durP2;ratioP2;P2;SDS_P1;SDS_P2;PMS_P1;PMS_P2;Temp;Humidity;BMP_temperature;BMP_pressure;BME280_temperature;BME280_humidity;BME280_pressure;Samples;Min_cycle;Max_cycle;Signal;HPM_P1;HPM_P2
2023/11/19 00:01:27;;;;;;;4.70;4.20;;;;;;;7.80;77.29;96263.06;5049227;28;20286;-69
2023/11/19 00:03:53;;;;;;;4.83;4.23;;;;;;;7.64;78.15;96256.69;5049413;28;20269;-70
2023/11/19 00:06:18;;;;;;;4.67;4.27;;;;;;;7.64;78.26;96249.69;5049232;28;20206;-71
2023/11/19 00:08:44;;;;;;;6.73;5.00;;;;;;;7.64;78.97;96252.28;5044757;28;20249;-71
2023/11/19 00:11:09;;;;;;;6.37;4.30;;;;;;;7.46;79.33;96245.09;5041146;28;20199;-68
2023/11/19 00:13:35;;;;;;;4.40;3.60;;;;;;;7.64;78.72;96246.22;5049382;28;20648;-69
2023/11/19 00:16:00;;;;;;;6.63;4.40;;;;;;;7.55;79.58;96236.09;5048830;28;20182;-70
2023/11/19 00:18:25;;;;;;;5.63;4.60;;;;;;;7.67;78.93;96229.59;5049617;28;20356;-70
2023/11/19 00:20:51;;;;;;;5.20;4.70;;;;;;;7.72;78.64;96222.44;5049173;28;20194;-70
2023/11/19 00:23:16;;;;;;;4.43;3.97;;;;;;;7.66;78.52;96218.31;5038502;28;20190;-70
2023/11/19 00:25:42;;;;;;;5.97;4.40;;;;;;;7.68;78.78;96199.94;5046834;28;20211;-71
2023/11/19 00:28:07;;;;;;;7.93;4.27;;;;;;;7.66;79.27;96207.84;5030336;28;20220;-70
2023/11/19 00:30:33;;;;;;;5.37;3.73;;;;;;;7.66;79.51;96207.00;5037094;28;20175;-71
2023/11/19 00:32:58;;;;;;;4.60;4.20;;;;;;;7.66;79.44;96202.63;5041631;28;20203;-69
2023/11/19 00:35:23;;;;;;;6.37;4.07;;;;;;;7.75;79.10;96193.63;5042485;28;20183;-69
2023/11/19 00:37:50;;;;;;;6.63;4.33;;;;;;;7.71;79.20;96194.63;5045833;28;20261;-68
2023/11/19 00:40:21;;;;;;;3.50;3.20;;;;;;;7.65;79.30;96198.28;5041934;28;20278;-71
2023/11/19 00:42:47;;;;;;;4.90;4.10;;;;;;;7.64;80.08;96204.44;5041060;28;20457;-71
2023/11/19 00:45:13;;;;;;;5.23;3.97;;;;;;;7.67;79.90;96203.47;5045780;28;20503;-69
2023/11/19 00:47:38;;;;;;;4.60;3.83;;;;;;;7.80;79.90;96200.38;5032413;28;20180;-69
2023/11/19 00:50:04;;;;;;;4.57;4.07;;;;;;;7.69;80.58;96196.44;5043583;28;20705;-69
2023/11/19 00:52:29;;;;;;;6.20;4.07;;;;;;;7.63;81.11;96192.31;5038871;28;20202;-71
2023/11/19 00:54:55;;;;;;;4.37;3.97;;;;;;;7.59;80.85;96181.09;5038492;28;20239;-69
2023/11/19 00:57:20;;;;;;;4.30;3.63;;;;;;;7.70;80.60;96191.19;5041022;28;20242;-71
2023/11/19 00:59:47;;;;;;;5.30;4.40;;;;;;;7.65;80.46;96187.84;5037209;28;20563;-69
2023/11/19 01:02:14;;;;;;;4.93;4.10;;;;;;;7.71;80.69;96173.75;5043039;28;20686;-70
2023/11/19 01:04:39;;;;;;;5.37;4.87;;;;;;;7.79;80.18;96182.97;5045868;28;20429;-69
2023/11/19 01:07:12;;;;;;;11.37;4.10;;;;;;;7.73;79.88;96162.31;5037857;28;20492;-67
2023/11/19 01:09:38;;;;;;;6.70;3.90;;;;;;;7.71;80.46;96179.81;5037978;28;20256;-69
2023/11/19 01:12:03;;;;;;;5.03;4.20;;;;;;;7.82;80.15;96176.81;5049873;28;20457;-67
2023/11/19 01:14:29;;;;;;;5.00;3.83;;;;;;;7.76;80.72;96180.50;5053198;28;20179;-71
2023/11/19 01:16:55;;;;;;;5.53;3.73;;;;;;;7.70;81.59;96177.25;5065775;28;20205;-69
2023/11/19 01:19:24;;;;;;;6.90;4.10;;;;;;;7.79;80.56;96176.91;5061859;28;20197;-70
2023/11/19 01:21:53;;;;;;;7.10;4.20;;;;;;;7.73;81.34;96161.47;5056163;28;20218;-70
2023/11/19 01:24:18;;;;;;;4.53;3.73;;;;;;;7.80;80.85;96158.59;5033934;28;20785;-69
2023/11/19 01:26:47;;;;;;;4.77;4.23;;;;;;;7.87;81.11;96163.59;5034072;28;20462;-69
2023/11/19 01:29:15;;;;;;;5.43;4.40;;;;;;;7.77;81.83;96155.22;5040144;28;20183;-69
2023/11/19 01:31:51;;;;;;;8.13;4.80;;;;;;;7.71;81.77;96153.69;5038449;28;20824;-70
2023/11/19 01:34:16;;;;;;;6.50;4.20;;;;;;;7.82;81.72;96142.84;5043349;28;20444;-69
2023/11/19 01:36:42;;;;;;;3.97;3.67;;;;;;;7.84;81.23;96147.13;5043897;28;20592;-69
2023/11/19 01:39:07;;;;;;;4.27;3.87;;;;;;;7.77;82.28;96144.75;5038266;28;20190;-70
2023/11/19 01:41:36;;;;;;;5.00;4.50;;;;;;;7.87;81.70;96142.69;5033257;28;20203;-70
2023/11/19 01:44:02;;;;;;;4.83;4.33;;;;;;;7.90;81.46;96135.56;5039432;28;20202;-70
2023/11/19 01:46:28;;;;;;;4.93;4.17;;;;;;;7.92;81.20;96136.38;5029876;28;20953;-69
2023/11/19 01:48:54;;;;;;;4.43;4.03;;;;;;;7.82;82.13;96145.47;5031538;28;20179;-70
2023/11/19 01:51:21;;;;;;;5.77;5.00;;;;;;;7.88;82.20;96139.16;5034230;28;20488;-69
2023/11/19 01:53:48;;;;;;;5.50;4.73;;;;;;;7.98;81.48;96124.81;5036294;28;20293;-70
2023/11/19 01:56:15;;;;;;;6.00;5.43;;;;;;;7.83;82.43;96121.88;5040911;28;20425;-70
2023/11/19 01:58:42;;;;;;;5.10;4.30;;;;;;;7.94;82.09;96123.25;5041564;28;20444;-71
2023/11/19 02:01:09;;;;;;;5.50;4.80;;;;;;;7.91;82.93;96112.91;5039592;28;20845;-69
2023/11/19 02:03:34;;;;;;;4.97;4.47;;;;;;;7.92;82.10;96106.78;5039192;28;20811;-70
2023/11/19 02:06:00;;;;;;;9.73;4.93;;;;;;;7.99;81.30;96095.19;5031585;28;20466;-70
2023/11/19 02:08:26;;;;;;;4.77;4.27;;;;;;;7.96;82.33;96096.16;5041784;28;20870;-70
2023/11/19 02:10:52;;;;;;;4.87;4.37;;;;;;;7.99;82.72;96092.56;5033565;28;20434;-69
2023/11/19 02:13:18;;;;;;;5.77;5.00;;;;;;;7.92;82.53;96088.50;5032505;28;20193;-69
2023/11/19 02:15:44;;;;;;;4.97;4.47;;;;;;;8.04;82.60;96080.19;5042299;28;20194;-71
2023/11/19 02:18:29;;;;;;;4.43;4.03;;;;;;;8.11;81.90;96072.97;5028668;28;20452;-67
2023/11/19 02:20:55;;;;;;;5.43;4.17;;;;;;;8.18;82.17;96072.66;5033165;28;20187;-71
2023/11/19 02:23:21;;;;;;;6.50;4.40;;;;;;;8.04;82.20;96074.94;5037414;28;20437;-69
2023/11/19 02:26:02;;;;;;;5.10;4.60;;;;;;;8.06;82.47;96078.38;5040024;28;20495;-70
2023/11/19 02:28:27;;;;;;;4.20;3.80;;;;;;;8.10;82.23;96073.84;5031937;28;20209;-70
2023/11/19 02:30:53;;;;;;;6.17;4.80;;;;;;;8.04;82.28;96075.78;5035223;28;20433;-70
2023/11/19 02:33:18;;;;;;;6.13;4.30;;;;;;;8.08;83.14;96066.09;5026145;28;20191;-69
2023/11/19 02:35:44;;;;;;;5.50;4.90;;;;;;;8.09;81.97;96070.38;5034191;28;20206;-72
2023/11/19 02:38:09;;;;;;;6.57;4.80;;;;;;;8.10;82.95;96072.09;5037033;28;20728;-70
2023/11/19 02:40:35;;;;;;;5.67;4.70;;;;;;;8.11;82.82;96065.97;5038662;28;20190;-70
2023/11/19 02:43:00;;;;;;;5.03;4.30;;;;;;;8.19;82.22;96076.09;5035609;28;20344;-71
2023/11/19 02:45:27;;;;;;;4.90;4.40;;;;;;;8.20;82.40;96078.66;5033321;28;20215;-68
2023/11/19 02:47:54;;;;;;;4.60;4.20;;;;;;;8.22;82.98;96055.94;5030485;28;20714;-69
2023/11/19 02:50:31;;;;;;;4.80;4.13;;;;;;;8.17;82.37;96063.13;5034429;28;20437;-71
2023/11/19 02:52:56;;;;;;;4.40;4.00;;;;;;;7.95;83.69;96060.47;5039426;28;20448;-68
2023/11/19 02:55:23;;;;;;;5.57;5.07;;;;;;;8.05;83.86;96056.63;5044002;28;20426;-70
2023/11/19 02:57:49;;;;;;;4.53;4.13;;;;;;;8.17;82.55;96062.25;5044097;28;20191;-71
2023/11/19 03:00:23;;;;;;;6.67;4.67;;;;;;;8.23;82.60;96057.63;5028618;28;21280;-69
2023/11/19 03:02:58;;;;;;;5.57;4.50;;;;;;;8.28;83.15;96050.44;5040256;28;20464;-70
2023/11/19 03:05:24;;;;;;;4.90;4.27;;;;;;;8.24;83.26;96059.34;5030320;28;20891;-68
2023/11/19 03:07:49;;;;;;;4.73;3.90;;;;;;;8.14;83.28;96055.38;5035466;28;20436;-68
2023/11/19 03:10:15;;;;;;;3.87;3.17;;;;;;;8.17;83.14;96047.44;5036940;28;20498;-69
2023/11/19 03:12:41;;;;;;;3.90;3.53;;;;;;;8.20;83.42;96047.31;5044757;28;20210;-68
2023/11/19 03:15:09;;;;;;;8.77;3.60;;;;;;;8.28;82.89;96044.38;5035861;28;20182;-70
2023/11/19 03:17:38;;;;;;;3.97;3.63;;;;;;;8.20;83.80;96049.91;5030635;28;21070;-67
2023/11/19 03:20:14;;;;;;;4.60;3.43;;;;;;;8.21;83.30;96048.16;5042857;28;20811;-69
2023/11/19 03:22:44;;;;;;;5.13;3.60;;;;;;;8.10;84.60;96055.56;5040113;28;20471;-68
2023/11/19 03:25:10;;;;;;;4.13;3.73;;;;;;;8.23;84.50;96056.78;5042869;28;20474;-70
2023/11/19 03:27:36;;;;;;;4.70;3.90;;;;;;;8.23;83.76;96072.47;5047884;28;20498;-71
2023/11/19 03:30:11;;;;;;;3.67;3.37;;;;;;;8.24;83.54;96069.81;5048907;28;20465;-70
2023/11/19 03:32:38;;;;;;;3.53;3.23;;;;;;;8.33;83.84;96065.94;5039929;28;20483;-68
2023/11/19 03:35:07;;;;;;;4.20;3.80;;;;;;;8.28;83.29;96060.91;5039351;28;20465;-71
2023/11/19 03:37:32;;;;;;;4.23;3.83;;;;;;;8.30;84.00;96067.84;5048978;28;20449;-70
2023/11/19 03:39:59;;;;;;;3.93;3.63;;;;;;;8.36;83.69;96058.00;5045475;28;20916;-69
2023/11/19 03:42:26;;;;;;;3.90;3.40;;;;;;;8.34;83.96;96051.97;5031724;28;20199;-68
2023/11/19 03:44:52;;;;;;;4.20;3.80;;;;;;;8.42;83.54;96062.16;5037762;28;20458;-69
2023/11/19 03:47:18;;;;;;;4.73;4.10;;;;;;;8.38;83.68;96071.00;5043125;28;20475;-69
2023/11/19 03:49:48;;;;;;;4.40;3.93;;;;;;;8.32;84.29;96072.09;5043550;28;20441;-69
2023/11/19 03:52:14;;;;;;;5.57;4.20;;;;;;;8.36;83.77;96065.84;5040549;28;20279;-68
2023/11/19 03:54:39;;;;;;;5.23;4.37;;;;;;;8.37;84.39;96071.91;5046682;28;20506;-67
2023/11/19 03:57:05;;;;;;;4.77;3.80;;;;;;;8.43;83.68;96067.31;5038181;28;20192;-71
2023/11/19 03:59:30;;;;;;;5.80;3.90;;;;;;;8.40;83.69;96074.44;5039204;28;20217;-70
2023/11/19 04:01:56;;;;;;;4.10;3.70;;;;;;;8.43;83.92;96077.78;5040489;28;20225;-68
2023/11/19 04:04:22;;;;;;;3.87;3.50;;;;;;;8.43;84.29;96085.63;5039740;28;20219;-71
2023/11/19 04:06:47;;;;;;;7.80;5.03;;;;;;;8.46;84.53;96084.66;5037334;28;20957;-70
2023/11/19 04:09:12;;;;;;;5.10;4.30;;;;;;;8.59;84.38;96087.59;5045227;28;20185;-70
2023/11/19 04:11:39;;;;;;;4.30;3.90;;;;;;;8.45;84.25;96086.38;5034956;28;20199;-68
2023/11/19 04:14:04;;;;;;;6.83;4.10;;;;;;;8.50;84.50;96077.50;5044413;28;20186;-70
2023/11/19 04:16:29;;;;;;;4.23;3.83;;;;;;;8.44;84.34;96074.25;5042612;28;20519;-70
2023/11/19 04:18:55;;;;;;;8.50;4.57;;;;;;;8.51;84.63;96069.63;5038060;28;20260;-68
2023/11/19 04:21:20;;;;;;;4.70;4.30;;;;;;;8.54;84.46;96071.25;5046060;28;20214;-68
2023/11/19 04:23:46;;;;;;;4.90;4.00;;;;;;;8.53;84.21;96073.03;5035701;28;20233;-69
2023/11/19 04:26:11;;;;;;;4.77;4.27;;;;;;;8.50;84.26;96074.91;5032639;28;20211;-69
2023/11/19 04:28:36;;;;;;;5.13;4.13;;;;;;;8.48;84.82;96073.22;5034006;28;20298;-69
2023/11/19 04:31:03;;;;;;;4.33;3.93;;;;;;;8.55;84.88;96071.19;5038237;28;20234;-68
2023/11/19 04:33:28;;;;;;;6.57;4.57;;;;;;;8.58;84.16;96068.44;5044336;28;20881;-68
2023/11/19 04:35:54;;;;;;;5.50;4.40;;;;;;;8.54;84.73;96077.34;5037010;28;20433;-69
2023/11/19 04:38:19;;;;;;;6.90;4.87;;;;;;;8.57;84.75;96073.72;5044135;28;20199;-70
2023/11/19 04:40:45;;;;;;;5.90;5.30;;;;;;;8.60;85.08;96081.47;5034320;28;20189;-69
2023/11/19 04:43:10;;;;;;;6.13;4.50;;;;;;;8.60;84.44;96081.47;5039017;28;20203;-68
2023/11/19 04:45:36;;;;;;;5.67;5.10;;;;;;;8.59;84.12;96078.00;5035501;28;20241;-70
2023/11/19 04:48:02;;;;;;;5.20;4.70;;;;;;;8.63;84.49;96066.50;5041620;28;20211;-69
2023/11/19 04:50:27;;;;;;;5.80;5.30;;;;;;;8.63;84.07;96069.09;5033951;28;20529;-71
2023/11/19 04:52:53;;;;;;;5.03;4.53;;;;;;;8.59;85.11;96064.91;5032500;28;20213;-69
2023/11/19 04:55:19;;;;;;;6.20;5.23;;;;;;;8.57;84.64;96076.34;5039161;28;20190;-69
2023/11/19 04:57:45;;;;;;;6.23;5.00;;;;;;;8.64;84.36;96081.25;5042316;28;20512;-69
2023/11/19 05:00:11;;;;;;;5.40;4.90;;;;;;;8.62;84.18;96072.66;5044186;28;20461;-71
2023/11/19 05:02:37;;;;;;;5.33;4.57;;;;;;;8.65;84.44;96067.28;5046265;28;20198;-68
2023/11/19 05:05:04;;;;;;;5.03;4.53;;;;;;;8.67;83.95;96062.00;5048144;28;20465;-69
2023/11/19 05:07:29;;;;;;;5.67;5.07;;;;;;;8.63;84.19;96065.66;5054614;28;20187;-70
2023/11/19 05:09:55;;;;;;;5.93;5.27;;;;;;;8.67;84.73;96062.00;5049348;28;20495;-69
2023/11/19 05:12:20;;;;;;;5.07;4.50;;;;;;;8.59;84.46;96069.28;5040785;28;20199;-70
2023/11/19 05:14:49;;;;;;;6.07;5.47;;;;;;;8.64;83.92;96067.34;5038308;28;21370;-69
2023/11/19 05:17:15;;;;;;;6.50;5.90;;;;;;;8.61;84.11;96063.09;5028695;28;20191;-69
2023/11/19 05:19:41;;;;;;;5.93;5.33;;;;;;;8.61;84.28;96072.69;5047948;28;20440;-69
2023/11/19 05:22:06;;;;;;;5.93;5.40;;;;;;;8.61;83.85;96065.69;5043006;28;20449;-70
2023/11/19 05:24:32;;;;;;;6.00;5.40;;;;;;;8.76;83.05;96058.97;5031995;28;20245;-68
2023/11/19 05:26:58;;;;;;;5.33;4.83;;;;;;;8.66;83.84;96066.34;5040877;28;20470;-69
2023/11/19 05:29:24;;;;;;;5.70;5.20;;;;;;;8.69;83.19;96070.59;5043025;28;20191;-71
2023/11/19 05:31:49;;;;;;;6.80;5.17;;;;;;;8.60;83.33;96073.63;5029847;28;20199;-68
2023/11/19 05:34:15;;;;;;;5.40;4.90;;;;;;;8.61;84.14;96073.53;5037091;28;20179;-68
2023/11/19 05:36:40;;;;;;;5.67;4.77;;;;;;;8.63;83.55;96071.72;5037029;28;20215;-69
2023/11/19 05:39:06;;;;;;;5.20;4.70;;;;;;;8.64;84.35;96073.41;5036409;28;20182;-72
2023/11/19 05:41:31;;;;;;;6.40;4.70;;;;;;;8.63;83.88;96081.34;5038617;28;20207;-72
2023/11/19 05:43:56;;;;;;;6.00;5.43;;;;;;;8.66;83.93;96086.44;5034898;28;20180;-68
2023/11/19 05:46:22;;;;;;;5.73;5.23;;;;;;;8.68;83.29;96100.31;5038446;28;20265;-68
2023/11/19 05:48:48;;;;;;;7.33;5.03;;;;;;;8.60;84.20;96094.56;5034631;28;20610;-69
2023/11/19 05:51:17;;;;;;;5.60;5.00;;;;;;;8.65;84.17;96092.59;5029400;28;20207;-69
2023/11/19 05:53:42;;;;;;;5.50;5.10;;;;;;;8.66;83.72;96089.91;5040706;28;20719;-70
2023/11/19 05:56:09;;;;;;;5.20;4.73;;;;;;;8.69;83.20;96076.72;5039752;28;20426;-67
2023/11/19 05:58:35;;;;;;;8.53;6.33;;;;;;;8.66;84.05;96074.19;5035867;28;20282;-68
2023/11/19 06:01:02;;;;;;;5.70;5.20;;;;;;;8.64;84.06;96083.88;5031643;28;20830;-72
2023/11/19 06:03:28;;;;;;;9.90;5.70;;;;;;;8.72;83.34;96083.56;5038242;28;20429;-69
2023/11/19 06:05:54;;;;;;;5.90;5.40;;;;;;;8.67;84.26;96082.94;5031583;28;20855;-72
2023/11/19 06:08:20;;;;;;;11.53;6.27;;;;;;;8.68;83.74;96071.53;5038427;28;20253;-71
2023/11/19 06:10:46;;;;;;;7.47;6.30;;;;;;;8.69;84.09;96086.31;5033708;28;20437;-69
2023/11/19 06:13:14;;;;;;;7.13;5.97;;;;;;;8.73;83.68;96087.03;5037832;28;20460;-68
2023/11/19 06:15:41;;;;;;;6.60;5.93;;;;;;;8.83;83.41;96093.56;5024010;28;20445;-72
2023/11/19 06:18:06;;;;;;;8.80;5.83;;;;;;;8.78;83.71;96090.31;5035214;28;21280;-69
2023/11/19 06:20:33;;;;;;;7.27;6.47;;;;;;;8.73;84.03;96095.72;5040824;28;20445;-69
2023/11/19 06:22:58;;;;;;;6.53;5.83;;;;;;;8.85;83.57;96102.22;5034825;28;20207;-68
2023/11/19 06:25:24;;;;;;;9.20;5.97;;;;;;;8.84;83.59;96104.00;5038906;28;20518;-69
2023/11/19 06:27:50;;;;;;;11.43;6.77;;;;;;;8.66;84.74;96107.38;5041525;28;20253;-69
2023/11/19 06:30:16;;;;;;;7.70;6.37;;;;;;;8.77;84.10;96102.53;5029747;28;20286;-69
2023/11/19 06:32:42;;;;;;;6.73;5.37;;;;;;;8.76;83.80;96095.59;5032639;28;20546;-70
2023/11/19 06:35:07;;;;;;;5.50;5.10;;;;;;;8.90;83.71;96102.88;5039200;28;20179;-68
2023/11/19 06:37:33;;;;;;;6.03;5.43;;;;;;;8.85;83.45;96113.53;5041913;28;20209;-68
2023/11/19 06:39:59;;;;;;;6.47;5.80;;;;;;;8.72;84.18;96114.97;5036445;28;20178;-71
2023/11/19 06:42:24;;;;;;;6.07;5.47;;;;;;;8.81;84.39;96126.81;5028492;28;21281;-70
2023/11/19 06:44:50;;;;;;;7.47;6.73;;;;;;;8.76;85.16;96120.91;5030911;28;20210;-68
2023/11/19 06:47:15;;;;;;;6.30;5.70;;;;;;;8.85;84.53;96121.38;5039227;28;20686;-68
2023/11/19 06:49:44;;;;;;;6.40;5.80;;;;;;;8.95;84.07;96110.53;5033870;28;20190;-71
2023/11/19 06:52:09;;;;;;;8.67;6.40;;;;;;;8.92;83.68;96110.66;5035770;28;20853;-70
2023/11/19 06:54:34;;;;;;;6.97;6.20;;;;;;;8.94;84.24;96108.84;5039147;28;20487;-70
2023/11/19 06:57:00;;;;;;;8.80;6.23;;;;;;;8.99;83.75;96109.50;5042679;28;20582;-68
2023/11/19 06:59:25;;;;;;;7.17;6.47;;;;;;;8.96;84.26;96113.09;5055405;28;20183;-71
2023/11/19 07:01:50;;;;;;;11.97;6.67;;;;;;;9.01;84.24;96113.75;5055163;28;20267;-70
2023/11/19 07:04:17;;;;;;;6.90;6.20;;;;;;;8.98;84.20;96118.28;5058939;28;20182;-70
2023/11/19 07:06:42;;;;;;;6.73;6.10;;;;;;;9.02;83.91;96120.66;5048354;28;20202;-70
2023/11/19 07:09:11;;;;;;;13.10;6.23;;;;;;;9.04;84.47;96128.47;5042900;28;20572;-68
2023/11/19 07:11:41;;;;;;;6.80;6.17;;;;;;;9.06;83.99;96130.09;5045846;28;20205;-71
2023/11/19 07:14:07;;;;;;;9.37;6.37;;;;;;;9.14;83.96;96126.31;5046117;28;20468;-70
2023/11/19 07:16:39;;;;;;;8.10;6.70;;;;;;;9.07;84.44;96131.81;5045822;28;20410;-68
2023/11/19 07:19:05;;;;;;;11.40;6.07;;;;;;;9.06;84.52;96131.88;5045850;28;20776;-69
2023/11/19 07:21:33;;;;;;;7.07;6.40;;;;;;;9.07;84.89;96123.09;5045971;28;20433;-70
2023/11/19 07:23:58;;;;;;;7.27;6.57;;;;;;;9.15;84.30;96123.63;5045907;28;20439;-68
2023/11/19 07:26:24;;;;;;;7.97;7.20;;;;;;;9.18;84.48;96127.88;5035181;28;20531;-68
2023/11/19 07:28:50;;;;;;;7.00;6.30;;;;;;;9.22;83.99;96137.31;5037275;28;20180;-68
2023/11/19 07:31:16;;;;;;;6.67;6.07;;;;;;;9.23;84.77;96131.16;5045095;28;20233;-69
2023/11/19 07:33:44;;;;;;;6.97;6.27;;;;;;;9.31;84.58;96142.16;5032917;28;20477;-71
2023/11/19 07:36:10;;;;;;;8.67;7.87;;;;;;;9.37;84.07;96128.78;5031655;28;20179;-70
2023/11/19 07:38:36;;;;;;;13.23;8.07;;;;;;;9.36;84.47;96131.50;5037441;28;20962;-70
2023/11/19 07:41:02;;;;;;;6.70;6.10;;;;;;;9.33;84.41;96129.88;5033789;28;20187;-70
2023/11/19 07:43:27;;;;;;;6.60;6.00;;;;;;;9.32;84.77;96133.38;5035816;28;20433;-69
2023/11/19 07:45:52;;;;;;;7.97;6.17;;;;;;;9.38;84.75;96135.75;5039699;28;20774;-69
2023/11/19 07:48:22;;;;;;;8.00;5.60;;;;;;;9.35;84.96;96133.25;5040187;28;20243;-69
2023/11/19 07:50:50;;;;;;;6.67;5.97;;;;;;;9.40;85.14;96143.50;5040587;28;20186;-69
2023/11/19 07:53:16;;;;;;;8.20;6.23;;;;;;;9.35;85.35;96154.19;5031646;28;22362;-68
2023/11/19 07:55:41;;;;;;;6.80;5.87;;;;;;;9.35;85.53;96158.59;5026708;28;20433;-69
2023/11/19 07:58:06;;;;;;;8.93;7.43;;;;;;;9.43;85.47;96154.72;5033962;28;20440;-70
2023/11/19 08:00:32;;;;;;;8.13;6.83;;;;;;;9.49;85.18;96162.28;5029991;28;20676;-69
2023/11/19 08:02:57;;;;;;;9.03;6.23;;;;;;;9.57;84.86;96158.50;5028566;28;20203;-69
2023/11/19 08:05:24;;;;;;;8.43;6.13;;;;;;;9.53;85.56;96158.63;5042431;28;20206;-69
2023/11/19 08:07:50;;;;;;;8.83;6.33;;;;;;;9.46;85.49;96153.75;5042084;28;20187;-70
2023/11/19 08:10:15;;;;;;;10.43;6.20;;;;;;;9.48;85.69;96154.53;5027202;28;20446;-69
2023/11/19 08:12:41;;;;;;;8.40;6.17;;;;;;;9.49;85.65;96162.28;5045684;28;20234;-69
2023/11/19 08:15:07;;;;;;;6.37;5.63;;;;;;;9.50;85.62;96155.31;5041091;28;20277;-68
2023/11/19 08:17:32;;;;;;;8.83;5.07;;;;;;;9.53;85.70;96157.78;5043694;28;20186;-71
2023/11/19 08:19:59;;;;;;;12.50;6.40;;;;;;;9.49;86.04;96158.84;5045046;28;20614;-67
2023/11/19 08:22:25;;;;;;;32.33;8.00;;;;;;;9.55;86.06;96163.81;5039948;28;20217;-70
2023/11/19 08:24:50;;;;;;;16.00;9.27;;;;;;;9.57;86.12;96166.34;5043122;28;20433;-69
2023/11/19 08:27:16;;;;;;;13.40;7.23;;;;;;;9.57;85.53;96168.97;5035215;28;21067;-69
2023/11/19 08:29:41;;;;;;;7.83;6.70;;;;;;;9.61;86.24;96166.16;5039672;28;20196;-69
2023/11/19 08:32:07;;;;;;;11.33;6.80;;;;;;;9.57;86.02;96161.13;5040683;28;20202;-69
2023/11/19 08:34:32;;;;;;;7.13;6.33;;;;;;;9.59;85.68;96162.78;5046045;28;20265;-69
2023/11/19 08:36:58;;;;;;;6.40;5.80;;;;;;;9.59;86.57;96154.03;5035471;28;20661;-68
2023/11/19 08:39:23;;;;;;;6.37;5.63;;;;;;;9.60;85.91;96159.22;5046444;28;20182;-69
2023/11/19 08:41:50;;;;;;;6.30;5.70;;;;;;;9.67;85.84;96155.41;5040456;28;20203;-70
2023/11/19 08:44:15;;;;;;;7.17;6.47;;;;;;;9.67;85.62;96157.19;5043109;28;20210;-69
2023/11/19 08:46:50;;;;;;;7.60;6.80;;;;;;;9.77;85.58;96153.22;5041775;28;21078;-70
2023/11/19 08:49:15;;;;;;;5.97;5.47;;;;;;;9.85;85.27;96145.03;5040168;28;20325;-68
2023/11/19 08:51:41;;;;;;;6.13;5.53;;;;;;;9.81;85.09;96146.94;5037139;28;20539;-68
2023/11/19 08:54:07;;;;;;;5.40;4.90;;;;;;;9.85;85.91;96152.88;5034681;28;20180;-70
2023/11/19 08:56:34;;;;;;;8.60;5.17;;;;;;;9.87;85.70;96145.81;5037933;28;20473;-69
2023/11/19 08:59:00;;;;;;;5.60;5.10;;;;;;;9.91;85.19;96142.97;5044189;28;20222;-70
2023/11/19 09:01:25;;;;;;;5.73;5.23;;;;;;;9.93;86.02;96137.69;5036763;28;20445;-69
2023/11/19 09:03:50;;;;;;;6.37;5.77;;;;;;;10.00;86.38;96140.88;5033367;28;20188;-68
2023/11/19 09:06:17;;;;;;;7.67;6.20;;;;;;;10.20;84.93;96138.16;5036088;28;20211;-69
2023/11/19 09:08:43;;;;;;;8.53;5.10;;;;;;;10.30;85.36;96134.25;5034238;28;20558;-68
2023/11/19 09:11:09;;;;;;;20.97;7.40;;;;;;;10.42;84.59;96137.19;5036681;28;20470;-68
2023/11/19 09:13:35;;;;;;;6.80;5.40;;;;;;;10.54;84.21;96126.97;5040167;28;20291;-71
2023/11/19 09:16:03;;;;;;;15.30;5.80;;;;;;;10.59;83.81;96130.22;5040989;28;20433;-69
2023/11/19 09:18:32;;;;;;;9.80;5.63;;;;;;;10.76;83.08;96142.50;5037268;28;20448;-71
2023/11/19 09:20:57;;;;;;;5.40;4.90;;;;;;;10.91;83.13;96119.91;5028587;28;20476;-71
2023/11/19 09:23:25;;;;;;;5.17;4.20;;;;;;;10.85;82.96;96132.50;5029825;28;21004;-69
2023/11/19 09:25:50;;;;;;;6.60;5.20;;;;;;;10.83;83.07;96131.72;5042893;28;21868;-70
2023/11/19 09:28:16;;;;;;;7.27;4.80;;;;;;;10.84;83.03;96136.03;5042569;28;20437;-68
2023/11/19 09:30:41;;;;;;;8.77;5.10;;;;;;;10.85;83.50;96141.22;5038983;28;20178;-68
2023/11/19 09:33:07;;;;;;;7.50;5.70;;;;;;;11.39;82.24;96135.91;5032046;28;20798;-69
2023/11/19 09:35:32;;;;;;;9.20;4.90;;;;;;;11.48;80.38;96145.94;5038525;28;20175;-67
2023/11/19 09:37:59;;;;;;;10.50;6.07;;;;;;;11.29;81.40;96151.31;5037683;28;20237;-67
2023/11/19 09:40:24;;;;;;;9.20;5.50;;;;;;;11.38;81.57;96144.69;5037154;28;20210;-68
2023/11/19 09:42:50;;;;;;;9.90;5.60;;;;;;;11.39;81.44;96154.31;5044706;28;20578;-68
2023/11/19 09:45:17;;;;;;;6.40;4.67;;;;;;;11.36;81.94;96150.06;5044913;28;20203;-65
2023/11/19 09:47:45;;;;;;;5.00;4.60;;;;;;;11.40;82.61;96156.00;5037366;28;20645;-69
2023/11/19 09:50:19;;;;;;;6.63;4.77;;;;;;;11.37;81.94;96164.03;5038967;28;20436;-68
2023/11/19 09:52:46;;;;;;;5.83;5.17;;;;;;;11.31;82.49;96157.28;5036803;28;20458;-68
2023/11/19 09:55:11;;;;;;;4.83;4.33;;;;;;;11.35;82.49;96161.47;5045228;28;20429;-69
2023/11/19 09:57:39;;;;;;;6.17;4.97;;;;;;;11.35;82.99;96150.13;5031906;28;21193;-69
2023/11/19 10:00:07;;;;;;;10.67;6.30;;;;;;;11.40;82.70;96161.25;5035548;28;20729;-67
2023/11/19 10:02:36;;;;;;;5.33;4.80;;;;;;;11.30;83.61;96155.63;5030596;28;20460;-67
2023/11/19 10:05:06;;;;;;;11.30;5.43;;;;;;;11.25;84.39;96157.63;5035634;28;20567;-69
2023/11/19 10:07:33;;;;;;;8.20;5.10;;;;;;;11.21;84.21;96158.69;5039459;28;20441;-68
2023/11/19 10:10:05;;;;;;;5.40;4.90;;;;;;;11.17;84.20;96155.41;5034110;28;20937;-69
2023/11/19 10:12:31;;;;;;;6.13;4.83;;;;;;;11.16;85.01;96151.06;5036727;28;20474;-65
2023/11/19 10:14:58;;;;;;;6.10;5.50;;;;;;;11.17;84.46;96146.63;5042461;28;20463;-67
2023/11/19 10:17:33;;;;;;;5.43;4.93;;;;;;;11.30;84.17;96152.13;5034586;28;20577;-69
2023/11/19 10:19:59;;;;;;;18.13;5.63;;;;;;;11.58;84.10;96157.69;5032971;28;20523;-67
2023/11/19 10:22:26;;;;;;;23.27;6.73;;;;;;;11.72;82.73;96148.22;5041054;28;20460;-69
2023/11/19 10:24:52;;;;;;;12.20;7.67;;;;;;;11.72;82.42;96138.56;5044175;28;20222;-68
2023/11/19 10:27:17;;;;;;;7.10;4.57;;;;;;;11.67;82.58;96135.34;5036645;28;20532;-68
2023/11/19 10:29:47;;;;;;;7.40;4.97;;;;;;;11.62;83.56;96126.81;5042079;28;20176;-67
2023/11/19 10:32:13;;;;;;;6.37;5.27;;;;;;;11.66;83.65;96131.00;5042337;28;20203;-69
2023/11/19 10:34:39;;;;;;;5.10;3.47;;;;;;;11.76;83.24;96136.59;5033211;28;20441;-69
2023/11/19 10:37:05;;;;;;;6.50;5.80;;;;;;;11.80;83.04;96138.16;5036395;28;20567;-67
2023/11/19 10:39:54;;;;;;;5.30;4.80;;;;;;;12.04;82.49;96125.50;5034325;28;20179;-65
2023/11/19 10:42:19;;;;;;;5.47;4.00;;;;;;;12.06;82.26;96127.09;5039473;28;20532;-68
2023/11/19 10:44:45;;;;;;;5.63;5.03;;;;;;;12.41;81.75;96120.88;5046753;28;20492;-69
2023/11/19 10:47:11;;;;;;;8.63;4.97;;;;;;;12.36;81.23;96115.84;5050914;28;20619;-66
2023/11/19 10:49:38;;;;;;;9.23;4.47;;;;;;;12.12;82.09;96120.69;5046237;28;21047;-66
2023/11/19 10:52:07;;;;;;;7.47;3.90;;;;;;;12.03;82.01;96111.50;5038373;28;20847;-68
2023/11/19 10:54:34;;;;;;;3.27;2.97;;;;;;;12.14;82.69;96112.69;5030824;28;20433;-67
2023/11/19 10:57:02;;;;;;;5.17;3.17;;;;;;;12.08;83.11;96096.31;5031594;28;20959;-67
2023/11/19 10:59:34;;;;;;;3.50;3.20;;;;;;;12.23;81.71;96097.25;5030748;28;20430;-68
2023/11/19 11:02:03;;;;;;;6.83;3.50;;;;;;;12.28;81.40;96102.25;5031019;28;20543;-69
2023/11/19 11:04:33;;;;;;;5.07;3.37;;;;;;;12.31;82.17;96099.47;5029095;28;20483;-67
2023/11/19 11:07:00;;;;;;;5.97;3.70;;;;;;;12.32;82.22;96100.31;5028009;28;21111;-68
2023/11/19 11:09:27;;;;;;;4.80;3.50;;;;;;;12.53;81.03;96090.38;5033317;28;20429;-67
2023/11/19 11:11:55;;;;;;;12.53;3.67;;;;;;;12.89;79.46;96080.34;5030474;28;20516;-68
2023/11/19 11:14:22;;;;;;;18.50;3.60;;;;;;;12.83;78.86;96075.47;5031755;28;21047;-66
2023/11/19 11:16:48;;;;;;;8.03;2.60;;;;;;;12.74;79.85;96062.81;5029615;28;20435;-69
2023/11/19 11:19:16;;;;;;;6.00;2.67;;;;;;;12.69;79.71;96065.72;5028955;28;20442;-66
2023/11/19 11:21:45;;;;;;;7.77;2.70;;;;;;;12.87;79.14;96076.97;5031435;28;20452;-70
2023/11/19 11:24:46;;;;;;;12.83;3.33;;;;;;;12.84;79.10;96071.03;5031992;28;20514;-66
2023/11/19 11:27:28;;;;;;;10.13;3.37;;;;;;;12.74;79.94;96083.03;5030524;28;20504;-66
2023/11/19 11:30:11;;;;;;;4.47;3.17;;;;;;;12.69;79.52;96070.97;5031991;28;20487;-66
2023/11/19 11:32:59;;;;;;;4.83;2.73;;;;;;;12.62;80.03;96067.00;5030253;28;20595;-68
2023/11/19 11:35:48;;;;;;;16.70;3.67;;;;;;;12.61;80.59;96070.56;5028006;28;20438;-69
2023/11/19 11:38:14;;;;;;;5.13;3.50;;;;;;;12.60;80.79;96060.13;5031631;28;20487;-69